Terminal Aerodrome Forecast
Issued by NWS Austin/San Antonio, TX

Home | Current Version | Previous Version | Text Only | Print | Product List | Glossary On
Versions: 1 2 3 4 5 6 7 8 9 10 11
628
FTUS44 KEWX 121129
TAFAUS
TAF
KAUS 121129Z 1212/1318 25003KT P6SM FEW250
      TEMPO 1213/1215 4SM BR SCT005
     FM121700 01008KT P6SM FEW250
     FM131100 03007KT 5SM BR OVC013=

USA.gov is the U.S. government's official web portal to all federal, state and local government web resources and services.